sensor_id;sensor_type;location;lat;lon;timestamp;pressure;altitude;pressure_sealevel;temperature;humidity
34674;BME280;20879;55.668;37.858;2023-11-21T00:00:10;99266.47;;;-8.63;80.00
34674;BME280;20879;55.668;37.858;2023-11-21T00:02:44;99276.53;;;-8.63;79.69
34674;BME280;20879;55.668;37.858;2023-11-21T00:05:17;99266.63;;;-8.60;79.92
34674;BME280;20879;55.668;37.858;2023-11-21T00:07:51;99239.81;;;-8.61;79.23
34674;BME280;20879;55.668;37.858;2023-11-21T00:10:25;99266.63;;;-8.60;79.25
34674;BME280;20879;55.668;37.858;2023-11-21T00:12:57;99256.28;;;-8.66;79.52
34674;BME280;20879;55.668;37.858;2023-11-21T00:15:32;99256.34;;;-8.65;79.47
34674;BME280;20879;55.668;37.858;2023-11-21T00:18:03;99264.44;;;-8.54;79.32
34674;BME280;20879;55.668;37.858;2023-11-21T00:20:35;99249.06;;;-8.44;79.30
34674;BME280;20879;55.668;37.858;2023-11-21T00:25:48;99242.06;;;-8.66;78.68
34674;BME280;20879;55.668;37.858;2023-11-21T00:28:20;99262.22;;;-8.64;78.69
34674;BME280;20879;55.668;37.858;2023-11-21T00:30:54;99257.06;;;-8.67;78.65
34674;BME280;20879;55.668;37.858;2023-11-21T00:33:24;99257.50;;;-8.74;78.91
34674;BME280;20879;55.668;37.858;2023-11-21T00:35:55;99265.34;;;-8.68;79.09
34674;BME280;20879;55.668;37.858;2023-11-21T00:38:25;99268.88;;;-8.81;79.60
34674;BME280;20879;55.668;37.858;2023-11-21T00:40:55;99258.19;;;-8.62;79.31
34674;BME280;20879;55.668;37.858;2023-11-21T00:43:26;99248.28;;;-8.59;79.29
34674;BME280;20879;55.668;37.858;2023-11-21T00:46:04;99243.03;;;-8.64;79.22
34674;BME280;20879;55.668;37.858;2023-11-21T00:48:37;99254.53;;;-8.67;78.90
34674;BME280;20879;55.668;37.858;2023-11-21T00:51:06;99239.78;;;-8.46;78.75
34674;BME280;20879;55.668;37.858;2023-11-21T00:53:37;99248.16;;;-8.46;78.74
34674;BME280;20879;55.668;37.858;2023-11-21T00:56:08;99242.81;;;-8.52;78.16
34674;BME280;20879;55.668;37.858;2023-11-21T00:58:42;99241.66;;;-8.73;78.58
34674;BME280;20879;55.668;37.858;2023-11-21T01:01:16;99253.38;;;-8.74;78.72
34674;BME280;20879;55.668;37.858;2023-11-21T01:03:47;99256.28;;;-8.66;78.90
34674;BME280;20879;55.668;37.858;2023-11-21T01:06:22;99242.59;;;-8.71;79.00
34674;BME280;20879;55.668;37.858;2023-11-21T01:08:53;99248.28;;;-8.59;78.71
34674;BME280;20879;55.668;37.858;2023-11-21T01:11:28;99252.06;;;-8.51;78.84
34674;BME280;20879;55.668;37.858;2023-11-21T01:14:10;99250.78;;;-8.43;79.01
34674;BME280;20879;55.668;37.858;2023-11-21T01:16:45;99236.94;;;-8.36;78.58
34674;BME280;20879;55.668;37.858;2023-11-21T01:19:18;99248.78;;;-8.17;78.19
34674;BME280;20879;55.668;37.858;2023-11-21T01:21:55;99244.84;;;-8.12;77.94
34674;BME280;20879;55.668;37.858;2023-11-21T01:24:27;99243.38;;;-8.08;77.55
34674;BME280;20879;55.668;37.858;2023-11-21T01:26:58;99250.50;;;-8.32;77.23
34674;BME280;20879;55.668;37.858;2023-11-21T01:29:34;99242.00;;;-8.51;77.80
34674;BME280;20879;55.668;37.858;2023-11-21T01:32:06;99235.75;;;-8.59;77.96
34674;BME280;20879;55.668;37.858;2023-11-21T01:34:37;99240.31;;;-8.52;78.34
34674;BME280;20879;55.668;37.858;2023-11-21T01:37:08;99240.34;;;-8.67;78.03
34674;BME280;20879;55.668;37.858;2023-11-21T01:39:39;99248.66;;;-8.68;77.89
34674;BME280;20879;55.668;37.858;2023-11-21T01:42:10;99247.59;;;-8.56;78.27
34674;BME280;20879;55.668;37.858;2023-11-21T01:44:42;99236.81;;;-8.70;78.25
34674;BME280;20879;55.668;37.858;2023-11-21T01:47:13;99237.06;;;-8.66;78.11
34674;BME280;20879;55.668;37.858;2023-11-21T01:49:45;99255.88;;;-8.74;78.51
34674;BME280;20879;55.668;37.858;2023-11-21T01:52:18;99256.41;;;-8.80;78.74
34674;BME280;20879;55.668;37.858;2023-11-21T01:54:48;99245.72;;;-8.75;78.68
34674;BME280;20879;55.668;37.858;2023-11-21T01:57:20;99249.16;;;-8.90;79.55
34674;BME280;20879;55.668;37.858;2023-11-21T01:59:54;99248.34;;;-8.89;79.13
34674;BME280;20879;55.668;37.858;2023-11-21T02:02:26;99249.03;;;-8.76;79.02
34674;BME280;20879;55.668;37.858;2023-11-21T02:04:57;99246.56;;;-8.60;79.17
34674;BME280;20879;55.668;37.858;2023-11-21T02:07:30;99263.13;;;-8.64;78.72
34674;BME280;20879;55.668;37.858;2023-11-21T02:10:03;99256.59;;;-8.60;79.07
34674;BME280;20879;55.668;37.858;2023-11-21T02:12:37;99247.59;;;-8.56;79.05
34674;BME280;20879;55.668;37.858;2023-11-21T02:15:12;99251.63;;;-8.75;79.19
34674;BME280;20879;55.668;37.858;2023-11-21T02:17:49;99233.75;;;-8.96;79.78
34674;BME280;20879;55.668;37.858;2023-11-21T02:20:29;99229.66;;;-9.10;80.20
34674;BME280;20879;55.668;37.858;2023-11-21T02:23:06;99264.81;;;-8.94;79.83
34674;BME280;20879;55.668;37.858;2023-11-21T02:25:36;99240.63;;;-9.08;79.59
34674;BME280;20879;55.668;37.858;2023-11-21T02:28:09;99250.72;;;-9.07;80.00
34674;BME280;20879;55.668;37.858;2023-11-21T02:30:40;99237.59;;;-9.18;79.88
34674;BME280;20879;55.668;37.858;2023-11-21T02:33:13;99253.31;;;-9.05;79.55
34674;BME280;20879;55.668;37.858;2023-11-21T02:35:43;99256.88;;;-9.02;79.71
34674;BME280;20879;55.668;37.858;2023-11-21T02:38:18;99264.81;;;-8.94;79.32
34674;BME280;20879;55.668;37.858;2023-11-21T02:40:48;99254.19;;;-8.90;79.02
34674;BME280;20879;55.668;37.858;2023-11-21T02:43:18;99258.84;;;-8.96;79.08
34674;BME280;20879;55.668;37.858;2023-11-21T02:46:00;99242.84;;;-8.98;78.92
34674;BME280;20879;55.668;37.858;2023-11-21T02:48:41;99259.97;;;-8.91;79.13
34674;BME280;20879;55.668;37.858;2023-11-21T02:51:15;99271.47;;;-8.80;78.55
34674;BME280;20879;55.668;37.858;2023-11-21T02:53:49;99268.25;;;-8.92;78.48
34674;BME280;20879;55.668;37.858;2023-11-21T02:56:22;99269.50;;;-9.00;78.97
34674;BME280;20879;55.668;37.858;2023-11-21T02:58:57;99248.31;;;-9.20;78.78
34674;BME280;20879;55.668;37.858;2023-11-21T03:01:29;99300.38;;;-9.01;78.86
34674;BME280;20879;55.668;37.858;2023-11-21T03:04:00;99281.00;;;-9.04;78.45
34674;BME280;20879;55.668;37.858;2023-11-21T03:06:33;99289.13;;;-8.93;78.40
34674;BME280;20879;55.668;37.858;2023-11-21T03:09:05;99272.22;;;-8.81;78.48
34674;BME280;20879;55.668;37.858;2023-11-21T03:11:42;99288.66;;;-8.71;77.75
34674;BME280;20879;55.668;37.858;2023-11-21T03:14:11;99285.03;;;-8.76;77.11
34674;BME280;20879;55.668;37.858;2023-11-21T03:16:48;99307.75;;;-9.19;77.99
34674;BME280;20879;55.668;37.858;2023-11-21T03:19:19;99304.47;;;-9.03;77.66
34674;BME280;20879;55.668;37.858;2023-11-21T03:21:50;99304.28;;;-8.91;77.87
34674;BME280;20879;55.668;37.858;2023-11-21T03:24:24;99295.59;;;-8.82;77.61
34674;BME280;20879;55.668;37.858;2023-11-21T03:26:57;99291.13;;;-9.02;77.03
34674;BME280;20879;55.668;37.858;2023-11-21T03:29:36;99303.41;;;-9.07;77.28
34674;BME280;20879;55.668;37.858;2023-11-21T03:32:07;99312.66;;;-8.91;77.36
34674;BME280;20879;55.668;37.858;2023-11-21T03:34:55;99309.97;;;-8.79;77.35
34674;BME280;20879;55.668;37.858;2023-11-21T03:37:27;99310.97;;;-8.75;76.96
34674;BME280;20879;55.668;37.858;2023-11-21T03:40:00;99318.06;;;-8.68;76.87
34674;BME280;20879;55.668;37.858;2023-11-21T03:42:33;99308.06;;;-8.83;75.98
34674;BME280;20879;55.668;37.858;2023-11-21T03:45:06;99321.00;;;-8.75;76.75
34674;BME280;20879;55.668;37.858;2023-11-21T03:47:45;99314.53;;;-8.72;76.57
34674;BME280;20879;55.668;37.858;2023-11-21T03:50:22;99319.63;;;-8.70;76.38
34674;BME280;20879;55.668;37.858;2023-11-21T03:52:53;99307.38;;;-8.81;76.24
34674;BME280;20879;55.668;37.858;2023-11-21T03:55:25;99307.19;;;-8.84;76.29
34674;BME280;20879;55.668;37.858;2023-11-21T03:57:58;99293.88;;;-8.83;76.15
34674;BME280;20879;55.668;37.858;2023-11-21T04:00:27;99298.91;;;-8.83;76.45
34674;BME280;20879;55.668;37.858;2023-11-21T04:03:00;99300.25;;;-8.73;75.92
34674;BME280;20879;55.668;37.858;2023-11-21T04:05:30;99289.75;;;-8.97;76.01
34674;BME280;20879;55.668;37.858;2023-11-21T04:08:02;99266.03;;;-9.02;76.35
34674;BME280;20879;55.668;37.858;2023-11-21T04:10:42;99323.19;;;-8.82;76.01
34674;BME280;20879;55.668;37.858;2023-11-21T04:13:13;99320.00;;;-8.79;75.88
34674;BME280;20879;55.668;37.858;2023-11-21T04:15:44;99324.16;;;-8.80;75.44
34674;BME280;20879;55.668;37.858;2023-11-21T04:18:16;99316.03;;;-8.90;75.79
34674;BME280;20879;55.668;37.858;2023-11-21T04:20:59;99311.72;;;-8.93;76.52
34674;BME280;20879;55.668;37.858;2023-11-21T04:23:30;99312.38;;;-8.81;75.84
34674;BME280;20879;55.668;37.858;2023-11-21T04:26:03;99302.34;;;-8.81;75.82
34674;BME280;20879;55.668;37.858;2023-11-21T04:28:33;99314.22;;;-8.93;76.25
34674;BME280;20879;55.668;37.858;2023-11-21T04:31:07;99310.31;;;-8.88;76.57
34674;BME280;20879;55.668;37.858;2023-11-21T04:33:37;99314.03;;;-8.96;76.48
34674;BME280;20879;55.668;37.858;2023-11-21T04:36:10;99315.94;;;-9.07;77.01
34674;BME280;20879;55.668;37.858;2023-11-21T04:38:45;99297.88;;;-9.01;76.85
34674;BME280;20879;55.668;37.858;2023-11-21T04:41:21;99286.63;;;-9.23;77.62
34674;BME280;20879;55.668;37.858;2023-11-21T04:43:53;99326.50;;;-9.13;77.76
34674;BME280;20879;55.668;37.858;2023-11-21T04:46:30;99329.00;;;-9.13;77.81
34674;BME280;20879;55.668;37.858;2023-11-21T04:49:08;99337.75;;;-9.06;77.30
34674;BME280;20879;55.668;37.858;2023-11-21T04:51:40;99319.31;;;-9.06;77.70
34674;BME280;20879;55.668;37.858;2023-11-21T04:54:12;99331.25;;;-9.02;77.46
34674;BME280;20879;55.668;37.858;2023-11-21T04:56:46;99318.22;;;-9.11;77.61
34674;BME280;20879;55.668;37.858;2023-11-21T04:59:16;99313.53;;;-9.20;78.70
34674;BME280;20879;55.668;37.858;2023-11-21T05:01:46;99321.81;;;-9.06;78.03
34674;BME280;20879;55.668;37.858;2023-11-21T05:04:16;99336.09;;;-9.05;78.02
34674;BME280;20879;55.668;37.858;2023-11-21T05:06:46;99340.09;;;-9.09;78.08
34674;BME280;20879;55.668;37.858;2023-11-21T05:09:17;99304.19;;;-9.23;77.83
34674;BME280;20879;55.668;37.858;2023-11-21T05:11:54;99334.91;;;-9.12;77.96
34674;BME280;20879;55.668;37.858;2023-11-21T05:14:24;99349.41;;;-9.06;78.24
34674;BME280;20879;55.668;37.858;2023-11-21T05:16:59;99344.94;;;-8.97;78.42
34674;BME280;20879;55.668;37.858;2023-11-21T05:19:29;99336.59;;;-8.96;77.71
34674;BME280;20879;55.668;37.858;2023-11-21T05:22:06;99337.66;;;-8.92;78.10
34674;BME280;20879;55.668;37.858;2023-11-21T05:24:35;99320.53;;;-9.00;77.50
34674;BME280;20879;55.668;37.858;2023-11-21T05:27:10;99337.66;;;-8.92;77.67
34674;BME280;20879;55.668;37.858;2023-11-21T05:29:42;99343.00;;;-8.71;77.89
34674;BME280;20879;55.668;37.858;2023-11-21T05:32:18;99324.31;;;-8.76;77.87
34674;BME280;20879;55.668;37.858;2023-11-21T05:34:52;99326.13;;;-8.59;77.92
34674;BME280;20879;55.668;37.858;2023-11-21T05:37:28;99349.13;;;-8.35;77.72
34674;BME280;20879;55.668;37.858;2023-11-21T05:40:01;99334.50;;;-8.42;76.84
34674;BME280;20879;55.668;37.858;2023-11-21T05:42:38;99339.44;;;-8.44;76.63
34674;BME280;20879;55.668;37.858;2023-11-21T05:45:13;99341.75;;;-8.48;77.07
34674;BME280;20879;55.668;37.858;2023-11-21T05:47:51;99350.09;;;-8.64;77.19
34674;BME280;20879;55.668;37.858;2023-11-21T05:50:29;99361.25;;;-8.59;77.50
34674;BME280;20879;55.668;37.858;2023-11-21T05:53:00;99358.22;;;-8.68;77.82
34674;BME280;20879;55.668;37.858;2023-11-21T05:55:30;99353.72;;;-8.59;77.67
34674;BME280;20879;55.668;37.858;2023-11-21T05:58:13;99357.88;;;-8.74;78.81
34674;BME280;20879;55.668;37.858;2023-11-21T06:00:43;99363.88;;;-8.72;78.56
34674;BME280;20879;55.668;37.858;2023-11-21T06:03:23;99364.81;;;-8.70;79.10
34674;BME280;20879;55.668;37.858;2023-11-21T06:05:53;99366.97;;;-8.62;79.59
34674;BME280;20879;55.668;37.858;2023-11-21T06:08:24;99361.00;;;-8.64;80.88
34674;BME280;20879;55.668;37.858;2023-11-21T06:10:59;99360.72;;;-8.68;81.07
34674;BME280;20879;55.668;37.858;2023-11-21T06:13:32;99368.63;;;-8.62;81.95
34674;BME280;20879;55.668;37.858;2023-11-21T06:16:02;99369.16;;;-8.83;83.41
34674;BME280;20879;55.668;37.858;2023-11-21T06:18:36;99377.47;;;-8.84;85.05
34674;BME280;20879;55.668;37.858;2023-11-21T06:21:11;99378.84;;;-8.74;87.05
34674;BME280;20879;55.668;37.858;2023-11-21T06:23:49;99387.63;;;-8.51;85.80
34674;BME280;20879;55.668;37.858;2023-11-21T06:26:20;99379.59;;;-8.29;87.53
34674;BME280;20879;55.668;37.858;2023-11-21T06:31:32;99383.16;;;-8.25;86.60
34674;BME280;20879;55.668;37.858;2023-11-21T06:34:03;99357.44;;;-8.21;89.73
34674;BME280;20879;55.668;37.858;2023-11-21T06:36:42;99383.84;;;-8.59;91.91
34674;BME280;20879;55.668;37.858;2023-11-21T06:39:14;99357.53;;;-8.66;90.06
34674;BME280;20879;55.668;37.858;2023-11-21T06:41:44;99377.81;;;-8.77;89.11
34674;BME280;20879;55.668;37.858;2023-11-21T06:44:23;99375.28;;;-8.77;89.30
34674;BME280;20879;55.668;37.858;2023-11-21T06:47:01;99384.88;;;-8.55;90.03
34674;BME280;20879;55.668;37.858;2023-11-21T06:49:33;99388.78;;;-8.46;91.66
34674;BME280;20879;55.668;37.858;2023-11-21T06:52:08;99383.75;;;-8.29;90.08
34674;BME280;20879;55.668;37.858;2023-11-21T06:54:41;99379.94;;;-8.54;88.61
34674;BME280;20879;55.668;37.858;2023-11-21T06:57:16;99360.03;;;-8.66;87.95
34674;BME280;20879;55.668;37.858;2023-11-21T06:59:56;99412.59;;;-8.84;86.72
34674;BME280;20879;55.668;37.858;2023-11-21T07:02:33;99386.47;;;-8.72;88.34
34674;BME280;20879;55.668;37.858;2023-11-21T07:05:03;99359.09;;;-8.98;85.32
34674;BME280;20879;55.668;37.858;2023-11-21T07:07:33;99365.16;;;-8.64;88.11
34674;BME280;20879;55.668;37.858;2023-11-21T07:10:06;99387.31;;;-8.26;88.95
34674;BME280;20879;55.668;37.858;2023-11-21T07:12:38;99390.84;;;-8.22;87.17
34674;BME280;20879;55.668;37.858;2023-11-21T07:15:10;99379.06;;;-8.23;87.12
34674;BME280;20879;55.668;37.858;2023-11-21T07:17:43;99380.72;;;-8.23;86.09
34674;BME280;20879;55.668;37.858;2023-11-21T07:20:14;99398.09;;;-8.12;86.06
34674;BME280;20879;55.668;37.858;2023-11-21T07:22:45;99363.38;;;-8.19;85.45
34674;BME280;20879;55.668;37.858;2023-11-21T07:25:21;99382.63;;;-8.51;82.97
34674;BME280;20879;55.668;37.858;2023-11-21T07:27:51;99376.84;;;-8.33;86.69
34674;BME280;20879;55.668;37.858;2023-11-21T07:30:25;99364.72;;;-8.40;85.06
34674;BME280;20879;55.668;37.858;2023-11-21T07:32:59;99360.47;;;-8.58;86.17
34674;BME280;20879;55.668;37.858;2023-11-21T07:35:39;99373.53;;;-8.49;85.49
34674;BME280;20879;55.668;37.858;2023-11-21T07:38:10;99392.00;;;-8.63;84.88
34674;BME280;20879;55.668;37.858;2023-11-21T07:40:45;99395.81;;;-8.55;86.75
34674;BME280;20879;55.668;37.858;2023-11-21T07:43:16;99374.50;;;-8.62;85.39
34674;BME280;20879;55.668;37.858;2023-11-21T07:45:56;99396.94;;;-8.33;87.35
34674;BME280;20879;55.668;37.858;2023-11-21T07:48:28;99380.97;;;-8.19;88.47
34674;BME280;20879;55.668;37.858;2023-11-21T07:51:01;99389.00;;;-8.10;88.16
34674;BME280;20879;55.668;37.858;2023-11-21T07:53:32;99389.09;;;-8.08;87.96
34674;BME280;20879;55.668;37.858;2023-11-21T07:56:13;99386.16;;;-8.16;87.51
34674;BME280;20879;55.668;37.858;2023-11-21T07:58:47;99368.88;;;-8.10;87.66
34674;BME280;20879;55.668;37.858;2023-11-21T08:01:25;99377.59;;;-8.19;86.68
34674;BME280;20879;55.668;37.858;2023-11-21T08:03:55;99375.94;;;-8.19;88.94
34674;BME280;20879;55.668;37.858;2023-11-21T08:06:30;99384.16;;;-8.21;89.90
34674;BME280;20879;55.668;37.858;2023-11-21T08:09:02;99387.13;;;-8.14;89.83
34674;BME280;20879;55.668;37.858;2023-11-21T08:11:33;99369.81;;;-8.24;88.84
34674;BME280;20879;55.668;37.858;2023-11-21T08:14:04;99388.59;;;-8.17;90.18
34674;BME280;20879;55.668;37.858;2023-11-21T08:16:39;99382.13;;;-8.44;85.00
34674;BME280;20879;55.668;37.858;2023-11-21T08:19:09;99363.59;;;-8.31;90.10
34674;BME280;20879;55.668;37.858;2023-11-21T08:21:39;99367.50;;;-8.36;87.62
34674;BME280;20879;55.668;37.858;2023-11-21T08:24:13;99382.94;;;-8.13;90.79
34674;BME280;20879;55.668;37.858;2023-11-21T08:26:49;99384.06;;;-8.08;88.01
34674;BME280;20879;55.668;37.858;2023-11-21T08:29:21;99375.91;;;-8.35;82.49
34674;BME280;20879;55.668;37.858;2023-11-21T08:31:55;99390.94;;;-8.20;86.27
34674;BME280;20879;55.668;37.858;2023-11-21T08:34:25;99379.72;;;-8.27;83.00
34674;BME280;20879;55.668;37.858;2023-11-21T08:37:02;99339.00;;;-8.53;79.09
34674;BME280;20879;55.668;37.858;2023-11-21T08:39:32;99382.78;;;-8.48;82.44
34674;BME280;20879;55.668;37.858;2023-11-21T08:42:03;99390.22;;;-8.49;82.71
34674;BME280;20879;55.668;37.858;2023-11-21T08:44:40;99394.66;;;-8.45;79.91
34674;BME280;20879;55.668;37.858;2023-11-21T08:47:12;99392.78;;;-8.33;81.85
34674;BME280;20879;55.668;37.858;2023-11-21T08:49:47;99372.53;;;-8.04;83.96
34674;BME280;20879;55.668;37.858;2023-11-21T08:52:25;99386.91;;;-8.02;83.67
34674;BME280;20879;55.668;37.858;2023-11-21T08:55:01;99385.09;;;-8.36;78.37
34674;BME280;20879;55.668;37.858;2023-11-21T08:57:43;99371.81;;;-8.33;80.29
34674;BME280;20879;55.668;37.858;2023-11-21T09:00:16;99338.63;;;-8.28;78.19
34674;BME280;20879;55.668;37.858;2023-11-21T09:02:49;99407.34;;;-8.27;78.51
34674;BME280;20879;55.668;37.858;2023-11-21T09:05:19;99406.88;;;-8.20;78.67
34674;BME280;20879;55.668;37.858;2023-11-21T09:07:49;99389.09;;;-8.08;77.68
34674;BME280;20879;55.668;37.858;2023-11-21T09:10:19;99406.19;;;-7.86;77.90
34674;BME280;20879;55.668;37.858;2023-11-21T09:12:51;99421.81;;;-7.92;77.38
34674;BME280;20879;55.668;37.858;2023-11-21T09:15:23;99410.94;;;-8.22;75.79
34674;BME280;20879;55.668;37.858;2023-11-21T09:17:54;99381.88;;;-8.33;76.09
34674;BME280;20879;55.668;37.858;2023-11-21T09:20:29;99409.03;;;-8.26;77.43
34674;BME280;20879;55.668;37.858;2023-11-21T09:23:00;99395.88;;;-8.22;76.06
34674;BME280;20879;55.668;37.858;2023-11-21T09:25:40;99399.16;;;-8.23;76.02
34674;BME280;20879;55.668;37.858;2023-11-21T09:28:13;99420.34;;;-8.34;75.50
34674;BME280;20879;55.668;37.858;2023-11-21T09:30:48;99399.84;;;-8.11;76.88
34674;BME280;20879;55.668;37.858;2023-11-21T09:33:20;99422.88;;;-7.71;76.65
34674;BME280;20879;55.668;37.858;2023-11-21T09:35:53;99422.88;;;-7.55;74.85
34674;BME280;20879;55.668;37.858;2023-11-21T09:38:23;99419.69;;;-7.67;74.17
34674;BME280;20879;55.668;37.858;2023-11-21T09:41:01;99408.09;;;-7.65;74.79
34674;BME280;20879;55.668;37.858;2023-11-21T09:43:32;99420.00;;;-7.78;74.16
34674;BME280;20879;55.668;37.858;2023-11-21T09:46:07;99415.09;;;-7.60;74.58
34674;BME280;20879;55.668;37.858;2023-11-21T09:48:49;99358.59;;;-7.83;73.61
34674;BME280;20879;55.668;37.858;2023-11-21T09:51:27;99434.00;;;-7.83;72.93
34674;BME280;20879;55.668;37.858;2023-11-21T09:53:57;99434.00;;;-7.66;74.32
34674;BME280;20879;55.668;37.858;2023-11-21T09:56:32;99418.00;;;-7.68;73.32
34674;BME280;20879;55.668;37.858;2023-11-21T09:59:02;99425.84;;;-7.62;72.81
34674;BME280;20879;55.668;37.858;2023-11-21T10:01:36;99416.19;;;-7.71;72.50
34674;BME280;20879;55.668;37.858;2023-11-21T10:04:08;99426.22;;;-7.87;73.20
34674;BME280;20879;55.668;37.858;2023-11-21T10:06:39;99415.78;;;-8.10;72.47
34674;BME280;20879;55.668;37.858;2023-11-21T10:09:10;99426.50;;;-8.13;73.44
34674;BME280;20879;55.668;37.858;2023-11-21T10:11:49;99428.28;;;-7.80;73.52
34674;BME280;20879;55.668;37.858;2023-11-21T10:14:24;99435.44;;;-7.71;72.73
34674;BME280;20879;55.668;37.858;2023-11-21T10:16:59;99426.78;;;-7.60;73.23
34674;BME280;20879;55.668;37.858;2023-11-21T10:19:33;99420.97;;;-7.43;73.07
34674;BME280;20879;55.668;37.858;2023-11-21T10:22:03;99400.09;;;-7.58;72.84
34674;BME280;20879;55.668;37.858;2023-11-21T10:24:39;99410.22;;;-7.57;72.53
34674;BME280;20879;55.668;37.858;2023-11-21T10:27:22;99391.88;;;-7.70;71.90
34674;BME280;20879;55.668;37.858;2023-11-21T10:30:00;99413.75;;;-7.69;73.06
34674;BME280;20879;55.668;37.858;2023-11-21T10:32:40;99416.25;;;-7.69;73.23
34674;BME280;20879;55.668;37.858;2023-11-21T10:35:12;99412.81;;;-7.55;73.32
34674;BME280;20879;55.668;37.858;2023-11-21T10:37:59;99410.75;;;-7.29;72.99
34674;BME280;20879;55.668;37.858;2023-11-21T10:40:33;99407.16;;;-7.18;73.17
34674;BME280;20879;55.668;37.858;2023-11-21T10:43:06;99405.03;;;-7.43;73.07
34674;BME280;20879;55.668;37.858;2023-11-21T10:45:38;99414.72;;;-7.34;73.04
34674;BME280;20879;55.668;37.858;2023-11-21T10:48:10;99414.94;;;-7.30;73.62
34674;BME280;20879;55.668;37.858;2023-11-21T10:50:46;99415.00;;;-7.28;72.71
34674;BME280;20879;55.668;37.858;2023-11-21T10:53:21;99417.69;;;-7.25;73.27
34674;BME280;20879;55.668;37.858;2023-11-21T10:56:02;99396.31;;;-7.17;73.26
34674;BME280;20879;55.668;37.858;2023-11-21T10:58:40;99421.13;;;-7.07;72.24
34674;BME280;20879;55.668;37.858;2023-11-21T11:01:17;99416.88;;;-7.08;72.14
34674;BME280;20879;55.668;37.858;2023-11-21T11:03:50;99420.22;;;-7.42;73.09
34674;BME280;20879;55.668;37.858;2023-11-21T11:06:24;99418.28;;;-7.79;74.54
34674;BME280;20879;55.668;37.858;2023-11-21T11:08:56;99429.91;;;-7.81;75.22
34674;BME280;20879;55.668;37.858;2023-11-21T11:11:28;99419.69;;;-7.67;75.78
34674;BME280;20879;55.668;37.858;2023-11-21T11:14:00;99433.41;;;-7.46;75.20
34674;BME280;20879;55.668;37.858;2023-11-21T11:16:31;99423.03;;;-7.19;74.26
34674;BME280;20879;55.668;37.858;2023-11-21T11:19:04;99425.63;;;-7.34;74.15
34674;BME280;20879;55.668;37.858;2023-11-21T11:21:37;99432.31;;;-7.34;74.47
34674;BME280;20879;55.668;37.858;2023-11-21T11:24:36;99427.53;;;-7.46;75.00
34674;BME280;20879;55.668;37.858;2023-11-21T11:27:21;99449.91;;;-7.51;75.55
34674;BME280;20879;55.668;37.858;2023-11-21T11:30:06;99434.00;;;-7.66;75.56
34674;BME280;20879;55.668;37.858;2023-11-21T11:32:43;99427.53;;;-7.78;75.00
34674;BME280;20879;55.668;37.858;2023-11-21T11:35:19;99419.16;;;-7.45;75.20
34674;BME280;20879;55.668;37.858;2023-11-21T11:37:59;99442.69;;;-7.45;75.32
34674;BME280;20879;55.668;37.858;2023-11-21T11:40:40;99440.19;;;-7.45;74.87
34674;BME280;20879;55.668;37.858;2023-11-21T11:43:10;99435.28;;;-7.58;75.18
34674;BME280;20879;55.668;37.858;2023-11-21T11:45:44;99430.50;;;-7.53;75.18
34674;BME280;20879;55.668;37.858;2023-11-21T11:48:22;99426.16;;;-7.56;75.34
34674;BME280;20879;55.668;37.858;2023-11-21T11:51:02;99460.13;;;-7.48;75.10
34674;BME280;20879;55.668;37.858;2023-11-21T11:53:39;99447.25;;;-7.38;74.74
34674;BME280;20879;55.668;37.858;2023-11-21T11:56:28;99438.91;;;-7.37;73.98
34674;BME280;20879;55.668;37.858;2023-11-21T11:59:03;99458.47;;;-7.47;73.59
34674;BME280;20879;55.668;37.858;2023-11-21T12:01:39;99435.00;;;-7.48;73.04
34674;BME280;20879;55.668;37.858;2023-11-21T12:04:27;99426.94;;;-7.57;73.21
34674;BME280;20879;55.668;37.858;2023-11-21T12:07:03;99411.38;;;-7.66;73.34
34674;BME280;20879;55.668;37.858;2023-11-21T12:09:37;99442.53;;;-7.48;73.26
34674;BME280;20879;55.668;37.858;2023-11-21T12:12:10;99442.03;;;-7.57;73.25
34674;BME280;20879;55.668;37.858;2023-11-21T12:14:41;99453.06;;;-7.55;72.96
34674;BME280;20879;55.668;37.858;2023-11-21T12:17:13;99451.25;;;-7.41;72.98
34674;BME280;20879;55.668;37.858;2023-11-21T12:19:44;99478.59;;;-7.47;72.29
34674;BME280;20879;55.668;37.858;2023-11-21T12:22:14;99474.38;;;-7.80;73.01
34674;BME280;20879;55.668;37.858;2023-11-21T12:24:49;99469.09;;;-7.84;73.34
34674;BME280;20879;55.668;37.858;2023-11-21T12:27:21;99459.88;;;-8.00;73.63
34674;BME280;20879;55.668;37.858;2023-11-21T12:30:03;99473.28;;;-8.00;74.27
34674;BME280;20879;55.668;37.858;2023-11-21T12:32:48;99451.63;;;-8.13;74.16
34674;BME280;20879;55.668;37.858;2023-11-21T12:35:22;99452.31;;;-8.00;73.88
34674;BME280;20879;55.668;37.858;2023-11-21T12:37:55;99459.78;;;-8.02;74.07
34674;BME280;20879;55.668;37.858;2023-11-21T12:47:47;99472.63;;;-8.42;74.15
34674;BME280;20879;55.668;37.858;2023-11-21T12:50:24;99482.16;;;-8.36;76.91
34674;BME280;20879;55.668;37.858;2023-11-21T12:52:59;99482.94;;;-8.22;77.12
34674;BME280;20879;55.668;37.858;2023-11-21T12:55:32;99471.91;;;-8.10;76.46
34674;BME280;20879;55.668;37.858;2023-11-21T12:58:05;99479.88;;;-8.02;76.74
34674;BME280;20879;55.668;37.858;2023-11-21T13:00:46;99480.47;;;-7.91;76.58
34674;BME280;20879;55.668;37.858;2023-11-21T13:03:19;99473.25;;;-7.85;76.16
34674;BME280;20879;55.668;37.858;2023-11-21T13:05:53;99484.50;;;-7.78;76.44
34674;BME280;20879;55.668;37.858;2023-11-21T13:08:30;99473.81;;;-7.91;75.59
34674;BME280;20879;55.668;37.858;2023-11-21T13:11:01;99491.66;;;-7.86;75.57
34674;BME280;20879;55.668;37.858;2023-11-21T13:13:33;99497.38;;;-7.88;75.58
34674;BME280;20879;55.668;37.858;2023-11-21T13:16:06;99489.41;;;-7.96;75.86
34674;BME280;20879;55.668;37.858;2023-11-21T13:18:40;99513.00;;;-8.09;76.22
34674;BME280;20879;55.668;37.858;2023-11-21T13:21:10;99496.72;;;-8.31;77.81
34674;BME280;20879;55.668;37.858;2023-11-21T13:23:43;99509.00;;;-8.35;78.53
34674;BME280;20879;55.668;37.858;2023-11-21T13:26:14;99480.09;;;-8.14;78.63
34674;BME280;20879;55.668;37.858;2023-11-21T13:28:48;99521.66;;;-8.19;77.90
34674;BME280;20879;55.668;37.858;2023-11-21T13:31:24;99518.97;;;-8.22;78.52
34674;BME280;20879;55.668;37.858;2023-11-21T13:34:01;99521.47;;;-8.22;78.33
34674;BME280;20879;55.668;37.858;2023-11-21T13:36:35;99528.34;;;-8.19;77.85